sensor_id;sensor_type;location;lat;lon;timestamp;P1;durP1;ratioP1;P2;durP2;ratioP2
19848;SDS011;10085;51.120;6.956;2023-02-23T10:53:35;21.05;;;9.88;;
19848;SDS011;10085;51.120;6.956;2023-02-23T10:58:40;16.88;;;9.00;;
19848;SDS011;10085;51.120;6.956;2023-02-23T11:03:47;16.35;;;8.75;;
19848;SDS011;10085;51.120;6.956;2023-02-23T11:09:15;15.40;;;7.93;;
19848;SDS011;10085;51.120;6.956;2023-02-23T11:14:21;17.15;;;8.82;;
19848;SDS011;10085;51.120;6.956;2023-02-23T11:19:29;16.38;;;8.48;;
19848;SDS011;10085;51.120;6.956;2023-02-23T11:24:39;15.73;;;8.25;;
19848;SDS011;10085;51.120;6.956;2023-02-23T11:29:43;18.08;;;8.70;;
19848;SDS011;10085;51.120;6.956;2023-02-23T11:35:09;15.25;;;8.25;;
19848;SDS011;10085;51.120;6.956;2023-02-23T11:40:30;18.65;;;8.27;;
19848;SDS011;10085;51.120;6.956;2023-02-23T11:45:44;15.60;;;8.35;;
19848;SDS011;10085;51.120;6.956;2023-02-23T11:50:49;13.73;;;7.85;;
19848;SDS011;10085;51.120;6.956;2023-02-23T11:55:53;12.65;;;7.75;;
19848;SDS011;10085;51.120;6.956;2023-02-23T12:00:57;14.98;;;7.78;;
19848;SDS011;10085;51.120;6.956;2023-02-23T12:06:01;13.68;;;7.43;;
19848;SDS011;10085;51.120;6.956;2023-02-23T12:11:06;14.15;;;7.70;;
19848;SDS011;10085;51.120;6.956;2023-02-23T12:16:15;16.90;;;9.05;;
19848;SDS011;10085;51.120;6.956;2023-02-23T12:21:26;19.92;;;9.48;;
19848;SDS011;10085;51.120;6.956;2023-02-23T12:26:33;20.45;;;9.82;;
19848;SDS011;10085;51.120;6.956;2023-02-23T12:31:41;21.63;;;10.85;;
19848;SDS011;10085;51.120;6.956;2023-02-23T12:36:46;24.52;;;12.18;;
19848;SDS011;10085;51.120;6.956;2023-02-23T12:41:56;22.50;;;12.13;;
19848;SDS011;10085;51.120;6.956;2023-02-23T12:47:03;27.70;;;12.43;;
19848;SDS011;10085;51.120;6.956;2023-02-23T12:52:10;28.52;;;13.65;;
19848;SDS011;10085;51.120;6.956;2023-02-23T12:57:20;29.42;;;13.05;;
19848;SDS011;10085;51.120;6.956;2023-02-23T13:02:28;28.55;;;14.07;;
19848;SDS011;10085;51.120;6.956;2023-02-23T13:07:37;26.80;;;13.50;;
19848;SDS011;10085;51.120;6.956;2023-02-23T13:12:49;28.80;;;14.65;;
19848;SDS011;10085;51.120;6.956;2023-02-23T13:17:57;28.65;;;14.45;;
19848;SDS011;10085;51.120;6.956;2023-02-23T13:23:07;26.90;;;13.52;;
19848;SDS011;10085;51.120;6.956;2023-02-23T13:28:16;26.73;;;13.35;;
19848;SDS011;10085;51.120;6.956;2023-02-23T13:33:23;23.95;;;12.15;;
19848;SDS011;10085;51.120;6.956;2023-02-23T13:44:22;25.38;;;11.82;;
19848;SDS011;10085;51.120;6.956;2023-02-23T13:49:31;21.35;;;10.70;;
19848;SDS011;10085;51.120;6.956;2023-02-23T13:54:52;20.73;;;10.98;;
19848;SDS011;10085;51.120;6.956;2023-02-23T13:59:58;20.02;;;10.50;;
19848;SDS011;10085;51.120;6.956;2023-02-23T14:05:04;17.58;;;9.77;;
19848;SDS011;10085;51.120;6.956;2023-02-23T14:10:14;16.10;;;9.43;;
19848;SDS011;10085;51.120;6.956;2023-02-23T14:20:51;16.83;;;8.75;;
19848;SDS011;10085;51.120;6.956;2023-02-23T14:26:12;14.52;;;8.57;;
19848;SDS011;10085;51.120;6.956;2023-02-23T14:31:21;15.95;;;8.70;;
19848;SDS011;10085;51.120;6.956;2023-02-23T14:36:35;14.70;;;8.25;;
19848;SDS011;10085;51.120;6.956;2023-02-23T14:41:42;13.75;;;7.72;;
19848;SDS011;10085;51.120;6.956;2023-02-23T14:46:49;14.10;;;8.25;;
19848;SDS011;10085;51.120;6.956;2023-02-23T14:51:58;13.18;;;7.25;;
19848;SDS011;10085;51.120;6.956;2023-02-23T14:57:15;12.70;;;7.45;;
19848;SDS011;10085;51.120;6.956;2023-02-23T15:02:22;13.93;;;7.00;;
19848;SDS011;10085;51.120;6.956;2023-02-23T15:07:28;12.20;;;7.03;;
19848;SDS011;10085;51.120;6.956;2023-02-23T15:12:33;10.68;;;6.57;;
19848;SDS011;10085;51.120;6.956;2023-02-23T15:17:40;10.00;;;6.38;;
19848;SDS011;10085;51.120;6.956;2023-02-23T15:22:45;13.15;;;6.70;;
19848;SDS011;10085;51.120;6.956;2023-02-23T15:27:48;9.40;;;6.20;;
19848;SDS011;10085;51.120;6.956;2023-02-23T15:33:03;10.50;;;6.43;;
19848;SDS011;10085;51.120;6.956;2023-02-23T15:38:07;11.57;;;6.20;;
19848;SDS011;10085;51.120;6.956;2023-02-23T15:43:25;10.80;;;7.35;;
19848;SDS011;10085;51.120;6.956;2023-02-23T15:48:39;11.77;;;8.45;;
19848;SDS011;10085;51.120;6.956;2023-02-23T15:53:46;12.90;;;10.25;;
19848;SDS011;10085;51.120;6.956;2023-02-23T15:58:50;12.52;;;9.75;;
19848;SDS011;10085;51.120;6.956;2023-02-23T16:04:05;13.05;;;9.48;;
19848;SDS011;10085;51.120;6.956;2023-02-23T16:09:13;15.50;;;11.35;;
19848;SDS011;10085;51.120;6.956;2023-02-23T16:14:22;14.75;;;11.45;;
19848;SDS011;10085;51.120;6.956;2023-02-23T16:19:27;16.88;;;11.80;;
19848;SDS011;10085;51.120;6.956;2023-02-23T16:24:30;16.15;;;12.63;;
19848;SDS011;10085;51.120;6.956;2023-02-23T16:29:35;21.23;;;12.88;;
19848;SDS011;10085;51.120;6.956;2023-02-23T16:34:59;19.08;;;14.55;;
19848;SDS011;10085;51.120;6.956;2023-02-23T16:40:04;20.67;;;13.35;;
19848;SDS011;10085;51.120;6.956;2023-02-23T16:45:25;18.90;;;12.82;;
19848;SDS011;10085;51.120;6.956;2023-02-23T16:50:31;27.73;;;14.40;;
19848;SDS011;10085;51.120;6.956;2023-02-23T16:55:37;24.65;;;14.25;;
19848;SDS011;10085;51.120;6.956;2023-02-23T17:00:41;24.05;;;14.20;;
19848;SDS011;10085;51.120;6.956;2023-02-23T17:05:46;29.17;;;13.98;;
19848;SDS011;10085;51.120;6.956;2023-02-23T17:10:50;27.90;;;13.88;;
19848;SDS011;10085;51.120;6.956;2023-02-23T17:15:54;27.77;;;13.90;;
19848;SDS011;10085;51.120;6.956;2023-02-23T17:21:00;26.80;;;13.68;;
19848;SDS011;10085;51.120;6.956;2023-02-23T17:26:05;36.10;;;14.18;;
19848;SDS011;10085;51.120;6.956;2023-02-23T17:31:08;39.95;;;13.60;;
19848;SDS011;10085;51.120;6.956;2023-02-23T17:36:14;26.27;;;12.65;;
19848;SDS011;10085;51.120;6.956;2023-02-23T17:41:18;30.17;;;13.60;;
19848;SDS011;10085;51.120;6.956;2023-02-23T17:46:22;28.52;;;13.35;;
19848;SDS011;10085;51.120;6.956;2023-02-23T17:51:26;27.42;;;13.32;;
19848;SDS011;10085;51.120;6.956;2023-02-23T17:56:29;24.52;;;12.07;;
19848;SDS011;10085;51.120;6.956;2023-02-23T18:01:32;28.77;;;12.52;;
19848;SDS011;10085;51.120;6.956;2023-02-23T18:06:36;25.15;;;11.82;;
19848;SDS011;10085;51.120;6.956;2023-02-23T18:11:39;29.77;;;12.05;;
19848;SDS011;10085;51.120;6.956;2023-02-23T18:16:42;25.05;;;11.75;;
19848;SDS011;10085;51.120;6.956;2023-02-23T18:21:46;21.75;;;10.55;;
19848;SDS011;10085;51.120;6.956;2023-02-23T18:26:49;19.45;;;11.38;;
19848;SDS011;10085;51.120;6.956;2023-02-23T18:31:53;19.55;;;10.57;;
19848;SDS011;10085;51.120;6.956;2023-02-23T18:36:57;23.60;;;11.02;;
19848;SDS011;10085;51.120;6.956;2023-02-23T18:42:02;21.83;;;10.18;;
19848;SDS011;10085;51.120;6.956;2023-02-23T18:47:05;22.33;;;10.75;;
19848;SDS011;10085;51.120;6.956;2023-02-23T18:52:10;19.02;;;9.93;;
19848;SDS011;10085;51.120;6.956;2023-02-23T18:57:13;20.33;;;10.20;;
19848;SDS011;10085;51.120;6.956;2023-02-23T19:02:16;21.58;;;10.00;;
19848;SDS011;10085;51.120;6.956;2023-02-23T19:07:20;18.75;;;9.88;;
19848;SDS011;10085;51.120;6.956;2023-02-23T19:12:23;16.85;;;9.73;;
19848;SDS011;10085;51.120;6.956;2023-02-23T19:17:28;16.15;;;9.25;;
19848;SDS011;10085;51.120;6.956;2023-02-23T19:22:32;18.42;;;9.48;;
19848;SDS011;10085;51.120;6.956;2023-02-23T19:27:41;17.88;;;9.23;;
19848;SDS011;10085;51.120;6.956;2023-02-23T19:32:43;15.90;;;9.02;;
19848;SDS011;10085;51.120;6.956;2023-02-23T19:37:48;16.83;;;9.00;;
19848;SDS011;10085;51.120;6.956;2023-02-23T19:42:52;16.40;;;8.70;;
19848;SDS011;10085;51.120;6.956;2023-02-23T19:47:55;14.07;;;8.43;;
19848;SDS011;10085;51.120;6.956;2023-02-23T19:52:59;15.05;;;8.65;;
19848;SDS011;10085;51.120;6.956;2023-02-23T19:58:21;14.52;;;7.97;;
19848;SDS011;10085;51.120;6.956;2023-02-23T20:03:27;15.95;;;8.27;;
19848;SDS011;10085;51.120;6.956;2023-02-23T20:08:31;14.73;;;8.30;;
19848;SDS011;10085;51.120;6.956;2023-02-23T20:13:34;13.70;;;8.05;;
19848;SDS011;10085;51.120;6.956;2023-02-23T20:24:35;15.52;;;7.95;;
19848;SDS011;10085;51.120;6.956;2023-02-23T20:36:11;13.43;;;7.18;;
19848;SDS011;10085;51.120;6.956;2023-02-23T20:52:38;15.38;;;7.35;;
19848;SDS011;10085;51.120;6.956;2023-02-23T21:03:41;14.65;;;7.15;;
19848;SDS011;10085;51.120;6.956;2023-02-23T21:09:12;14.13;;;7.35;;
19848;SDS011;10085;51.120;6.956;2023-02-23T21:14:18;12.23;;;7.05;;
19848;SDS011;10085;51.120;6.956;2023-02-23T21:19:23;13.48;;;7.20;;
19848;SDS011;10085;51.120;6.956;2023-02-23T21:24:31;14.27;;;7.13;;
19848;SDS011;10085;51.120;6.956;2023-02-23T21:29:35;13.95;;;7.10;;
19848;SDS011;10085;51.120;6.956;2023-02-23T21:34:39;11.18;;;6.40;;
19848;SDS011;10085;51.120;6.956;2023-02-23T21:39:42;14.82;;;6.30;;
19848;SDS011;10085;51.120;6.956;2023-02-23T21:44:46;12.95;;;6.50;;
19848;SDS011;10085;51.120;6.956;2023-02-23T21:49:50;15.75;;;6.55;;
19848;SDS011;10085;51.120;6.956;2023-02-23T21:54:54;9.50;;;5.90;;
19848;SDS011;10085;51.120;6.956;2023-02-23T21:59:57;12.07;;;6.28;;
19848;SDS011;10085;51.120;6.956;2023-02-23T22:05:01;10.38;;;6.50;;
19848;SDS011;10085;51.120;6.956;2023-02-23T22:10:04;12.13;;;6.20;;
19848;SDS011;10085;51.120;6.956;2023-02-23T22:15:08;10.82;;;6.28;;
19848;SDS011;10085;51.120;6.956;2023-02-23T22:20:13;11.18;;;6.32;;
19848;SDS011;10085;51.120;6.956;2023-02-23T22:25:19;12.20;;;6.43;;
19848;SDS011;10085;51.120;6.956;2023-02-23T22:30:22;11.77;;;5.97;;
19848;SDS011;10085;51.120;6.956;2023-02-23T22:35:27;9.98;;;5.80;;
19848;SDS011;10085;51.120;6.956;2023-02-23T22:40:30;10.30;;;5.80;;
19848;SDS011;10085;51.120;6.956;2023-02-23T22:45:33;11.77;;;6.03;;
19848;SDS011;10085;51.120;6.956;2023-02-23T22:50:38;9.25;;;5.35;;
19848;SDS011;10085;51.120;6.956;2023-02-23T22:55:44;11.98;;;5.93;;
19848;SDS011;10085;51.120;6.956;2023-02-23T23:00:48;9.43;;;5.53;;
19848;SDS011;10085;51.120;6.956;2023-02-23T23:06:06;10.73;;;5.55;;
19848;SDS011;10085;51.120;6.956;2023-02-23T23:11:11;10.57;;;5.80;;
19848;SDS011;10085;51.120;6.956;2023-02-23T23:16:16;11.55;;;5.88;;
19848;SDS011;10085;51.120;6.956;2023-02-23T23:21:33;14.18;;;6.30;;
19848;SDS011;10085;51.120;6.956;2023-02-23T23:26:36;11.15;;;5.43;;
19848;SDS011;10085;51.120;6.956;2023-02-23T23:31:41;9.57;;;5.38;;
19848;SDS011;10085;51.120;6.956;2023-02-23T23:36:48;11.45;;;5.57;;
19848;SDS011;10085;51.120;6.956;2023-02-23T23:41:53;9.32;;;5.35;;
19848;SDS011;10085;51.120;6.956;2023-02-23T23:46:56;9.95;;;5.68;;
19848;SDS011;10085;51.120;6.956;2023-02-23T23:52:01;10.95;;;6.03;;
19848;SDS011;10085;51.120;6.956;2023-02-23T23:57:04;11.27;;;5.03;;
